Painesdale, Michigan
Current Conditions -  °F | °C
As of 6:53 PM on Thursday 27 Nov 2014 (Local Time) from KCMX Reporting Station
Light Snow Light Snow  
Wind Chill: -5°   Ceiling: 2500
Heat Index:   Visibility: 7mi
Dew Point:   Wind: 9mph
Humidity: 76%   Direction: 290°WNW
Pressure: 30.29"   Gusts: NA
Location:  47.04°N, 88.67°W
Report Text: KCMX 272353Z AUTO 29008KT 7SM -SN SCT018 OVC025 M13/M17 A3029 RMK AO2 SNE17B33 SLP285 P0000 60001 T11331167 11111 21133 58005
Loading
Personal Weather Stations






























Interactive Weather Map New forecast layout! Learn more

10-Day Weather Forecast

Advertisements
Track Severe Weather on mobile